This is the latest recevied weather packets stored in our database for station/object DM3FAM-10. If no packets are shown the sender has not sent any weather packets the latest 10 day(s).
| Time | Temp. | Humidity | Pressure | Rain* | Wind** | Luminosity | Snow |
|---|---|---|---|---|---|---|---|
| 1777137962 | 13.89° C | 66% | 968.3 hPa | - | - | - | - |
| 1777137062 | 14.44° C | 62% | 968.3 hPa | - | - | - | - |
| 1777136162 | 16.11° C | 50% | 968.3 hPa | - | - | - | - |
| 1777135262 | 17.22° C | 44% | 968.2 hPa | - | - | - | - |
| 1777134361 | 18.89° C | 34% | 968.2 hPa | - | - | - | - |
| 1777133461 | 21.67° C | 29% | 968.1 hPa | - | - | - | - |
| 1777132561 | 21.11° C | 26% | 968.3 hPa | - | - | - | - |
| 1777131661 | 21.67° C | 22% | 968.3 hPa | - | - | - | - |
| 1777130761 | 23.33° C | 21% | 968.3 hPa | - | - | - | - |
| 1777129861 | 22.78° C | 25% | 968.3 hPa | - | - | - | - |
| 1777128961 | 23.89° C | 25% | 968.3 hPa | - | - | - | - |
| 1777128061 | 25° C | 24% | 968.3 hPa | - | - | - | - |
| 1777127161 | 24.44° C | 25% | 968.2 hPa | - | - | - | - |
| 1777126261 | 22.78° C | 24% | 968.3 hPa | - | - | - | - |
| 1777125361 | 24.44° C | 23% | 968.4 hPa | - | - | - | - |
| 1777124461 | 25.56° C | 20% | 968.5 hPa | - | - | - | - |
| 1777123561 | 23.89° C | 22% | 968.6 hPa | - | - | - | - |
| 1777122661 | 23.89° C | 24% | 968.7 hPa | - | - | - | - |
| 1777121761 | 25° C | 20% | 968.7 hPa | - | - | - | - |
| 1777120860 | 27.78° C | 20% | 968.7 hPa | - | - | - | - |
| 1777119960 | 27.78° C | 22% | 968.7 hPa | - | - | - | - |
| 1777119060 | 26.11° C | 25% | 968.8 hPa | - | - | - | - |
| 1777118160 | 22.78° C | 27% | 969 hPa | - | - | - | - |
| 1777117260 | 23.33° C | 30% | 968.9 hPa | - | - | - | - |
| 1777116360 | 22.22° C | 30% | 968.8 hPa | - | - | - | - |
* Rain since midnight (hover to see other rain measurements)
** Current wind speed in m/s (hover to see current wind gust speed)